Terminal Aerodrome Forecast
Issued by NWS Jacksonville, FL

Home | Current Version | Previous Version | Text Only | Print | Product List | Glossary On
Versions: 1 2 3 4 5 6 7 8 9 10 11 12 13 14 15 16 17 18 19 20 21 22 23 24 25 26 27 28 29 30 31 32 33 34 35
000
FTUS42 KJAX 252100 AAB
TAFJAX
TAF AMD
KJAX 252120Z 2521/2618 05008KT 1SM +TSRA BKN010CB
     FM252300 03007KT 1SM +RA BR VCTS OVC004CB
     FM260300 36010KT 2SM RA BR SCT002 OVC005
     FM260900 31016G28KT 5SM SHRA SCT005 OVC010
     FM261300 32012KT 6SM -SHRA SCT010 BKN050=

USA.gov is the U.S. government's official web portal to all federal, state and local government web resources and services.